createdAt,value
2023-04-12T00:01:03.073Z,9.30
2023-04-12T00:03:30.440Z,9.30
2023-04-12T00:05:57.328Z,9.30
2023-04-12T00:08:33.027Z,9.30
2023-04-12T00:11:01.245Z,9.30
2023-04-12T00:13:28.926Z,9.30
2023-04-12T00:15:55.913Z,9.40
2023-04-12T00:18:25.232Z,9.40
2023-04-12T00:20:52.868Z,9.40
2023-04-12T00:23:19.945Z,9.40
2023-04-12T00:25:46.931Z,9.40
2023-04-12T00:28:14.357Z,9.40
2023-04-12T00:30:41.757Z,9.50
2023-04-12T00:33:08.617Z,9.50
2023-04-12T00:35:35.586Z,9.40
2023-04-12T00:38:03.707Z,9.40
2023-04-12T00:40:30.657Z,9.50
2023-04-12T00:42:57.721Z,9.40
2023-04-12T00:45:27.222Z,9.40
2023-04-12T00:47:54.947Z,9.40
2023-04-12T00:50:23.144Z,9.40
2023-04-12T00:52:51.929Z,9.50
2023-04-12T00:55:18.771Z,9.50
2023-04-12T00:57:45.554Z,9.50
2023-04-12T01:00:12.821Z,9.60
2023-04-12T01:02:48.243Z,9.60
2023-04-12T01:05:21.946Z,9.50
2023-04-12T01:08:15.533Z,9.50
2023-04-12T01:11:05.004Z,9.50
2023-04-12T01:13:40.249Z,9.50
2023-04-12T01:16:12.885Z,9.50
2023-04-12T01:18:42.445Z,9.50
2023-04-12T01:21:16.252Z,9.50
2023-04-12T01:24:04.188Z,9.50
2023-04-12T01:26:41.720Z,9.50
2023-04-12T01:29:11.576Z,9.40
2023-04-12T01:31:54.643Z,9.40
2023-04-12T01:34:24.298Z,9.50
2023-04-12T01:36:52.985Z,9.50
2023-04-12T01:39:20.798Z,9.50
2023-04-12T01:41:49.663Z,9.40
2023-04-12T01:44:16.881Z,9.40
2023-04-12T01:46:46.691Z,9.40
2023-04-12T01:49:15.471Z,9.40
2023-04-12T01:52:02.544Z,9.30
2023-04-12T01:54:31.131Z,9.30
2023-04-12T01:57:01.749Z,9.30
2023-04-12T01:59:44.332Z,9.30
2023-04-12T02:02:12.967Z,9.30
2023-04-12T02:04:41.531Z,9.30
2023-04-12T02:07:09.356Z,9.20
2023-04-12T02:09:39.896Z,9.20
2023-04-12T02:12:08.918Z,9.20
2023-04-12T02:14:36.751Z,9.20
2023-04-12T02:17:05.188Z,9.10
2023-04-12T02:19:32.725Z,9.10
2023-04-12T02:21:59.783Z,9.10
2023-04-12T02:24:29.094Z,9.10
2023-04-12T02:26:56.410Z,9.10
2023-04-12T02:29:23.835Z,9.10
2023-04-12T02:31:51.260Z,9.00
2023-04-12T02:34:18.791Z,9.00
2023-04-12T02:36:50.982Z,9.00
2023-04-12T02:39:22.016Z,9.00
2023-04-12T02:41:50.895Z,8.90
2023-04-12T02:44:17.709Z,8.90
2023-04-12T02:46:53.208Z,8.90
2023-04-12T02:49:20.039Z,8.90
2023-04-12T02:51:48.005Z,8.90
2023-04-12T02:54:16.821Z,8.90
2023-04-12T02:57:02.357Z,8.90
2023-04-12T02:59:35.901Z,8.80
2023-04-12T03:02:11.495Z,8.80
2023-04-12T03:04:39.954Z,8.80
2023-04-12T03:07:11.343Z,8.80
2023-04-12T03:09:47.688Z,8.80
2023-04-12T03:12:16.419Z,8.80
2023-04-12T03:14:53.570Z,8.80
2023-04-12T03:17:24.518Z,8.80
2023-04-12T03:19:53.651Z,8.80
2023-04-12T03:22:22.841Z,8.70
2023-04-12T03:24:54.062Z,8.70
2023-04-12T03:27:22.026Z,8.70
2023-04-12T03:29:49.956Z,8.70
2023-04-12T03:32:20.623Z,8.70
2023-04-12T03:34:48.021Z,8.60
2023-04-12T03:37:19.835Z,8.60
2023-04-12T03:39:48.205Z,8.60
2023-04-12T03:42:32.290Z,8.60
2023-04-12T03:45:07.825Z,8.60
2023-04-12T03:47:34.678Z,8.60
2023-04-12T03:50:11.699Z,8.50
2023-04-12T03:52:42.975Z,8.50
2023-04-12T03:55:11.857Z,8.50
2023-04-12T03:57:38.698Z,8.50
2023-04-12T04:00:08.762Z,8.40
2023-04-12T04:02:54.172Z,8.50
2023-04-12T04:05:21.194Z,8.50
2023-04-12T04:07:48.535Z,8.50
2023-04-12T04:10:18.196Z,8.40
2023-04-12T04:12:45.809Z,8.40
2023-04-12T04:15:14.891Z,8.40
2023-04-12T04:17:42.863Z,8.40
2023-04-12T04:20:12.292Z,8.50
2023-04-12T04:22:42.095Z,8.50
2023-04-12T04:25:09.432Z,8.50
2023-04-12T04:27:44.878Z,8.50
2023-04-12T04:30:12.848Z,8.50
2023-04-12T04:32:44.180Z,8.50
2023-04-12T04:35:12.246Z,8.50
2023-04-12T04:37:52.746Z,8.50
2023-04-12T04:40:21.739Z,8.50
2023-04-12T04:42:54.572Z,8.50
2023-04-12T04:45:28.325Z,8.50
2023-04-12T04:47:56.147Z,8.50
2023-04-12T04:50:24.342Z,8.50
2023-04-12T04:52:53.262Z,8.50
2023-04-12T04:55:24.795Z,8.60
2023-04-12T04:57:51.854Z,8.50
2023-04-12T05:00:19.791Z,8.60
2023-04-12T05:02:53.519Z,8.60
2023-04-12T05:05:25.902Z,8.60
2023-04-12T05:07:59.023Z,8.60
2023-04-12T05:10:29.830Z,8.60
2023-04-12T05:13:00.278Z,8.60
2023-04-12T05:15:27.337Z,8.70
2023-04-12T05:17:54.346Z,8.70
2023-04-12T05:20:21.339Z,8.70
2023-04-12T05:22:48.224Z,8.70
2023-04-12T05:25:15.506Z,8.70
2023-04-12T05:27:51.996Z,8.70
2023-04-12T05:30:20.214Z,8.70
2023-04-12T05:32:47.243Z,8.80
2023-04-12T05:35:16.892Z,8.80
2023-04-12T05:37:44.788Z,8.80
2023-04-12T05:40:13.583Z,8.80
2023-04-12T05:42:40.957Z,8.80
2023-04-12T05:45:08.256Z,8.80
2023-04-12T05:47:37.179Z,8.80
2023-04-12T05:50:06.793Z,8.80
2023-04-12T05:52:33.983Z,8.70
2023-04-12T05:55:01.165Z,8.70
2023-04-12T05:57:29.194Z,8.70
2023-04-12T05:59:56.483Z,8.70
2023-04-12T06:02:25.940Z,8.70
2023-04-12T06:04:55.258Z,8.70
2023-04-12T06:07:22.307Z,8.60
2023-04-12T06:09:49.747Z,8.60
2023-04-12T06:12:17.155Z,8.50
2023-04-12T06:14:44.568Z,8.50
2023-04-12T06:17:11.594Z,8.50
2023-04-12T06:19:40.029Z,8.50
2023-04-12T06:22:06.888Z,8.40
2023-04-12T06:24:34.011Z,8.50
2023-04-12T06:27:00.855Z,8.40
2023-04-12T06:29:27.936Z,8.40
2023-04-12T06:31:54.719Z,8.40
2023-04-12T06:34:21.752Z,8.40
2023-04-12T06:36:49.530Z,8.40
2023-04-12T06:39:17.004Z,8.40
2023-04-12T06:41:43.863Z,8.40
2023-04-12T06:44:10.831Z,8.40
2023-04-12T06:46:37.675Z,8.40
2023-04-12T06:49:04.485Z,8.40
2023-04-12T06:51:31.350Z,8.40
2023-04-12T06:53:58.093Z,8.40
2023-04-12T06:56:24.901Z,8.40
2023-04-12T06:58:51.636Z,8.40
2023-04-12T07:01:18.721Z,8.40
2023-04-12T07:03:45.726Z,8.40
2023-04-12T07:06:24.310Z,8.40
2023-04-12T07:08:52.452Z,8.50
2023-04-12T07:11:21.961Z,8.40
2023-04-12T07:13:49.644Z,8.50
2023-04-12T07:16:17.551Z,8.50
2023-04-12T07:18:44.565Z,8.60
2023-04-12T07:21:14.285Z,8.60
2023-04-12T07:23:41.321Z,8.60
2023-04-12T07:26:08.140Z,8.60
2023-04-12T07:28:36.246Z,8.70
2023-04-12T07:31:07.095Z,8.70
2023-04-12T07:33:38.241Z,8.80
2023-04-12T07:36:07.308Z,8.80
2023-04-12T07:38:34.131Z,8.90
2023-04-12T07:41:00.931Z,8.90
2023-04-12T07:43:27.713Z,8.90
2023-04-12T07:45:56.146Z,9.00
2023-04-12T07:48:23.376Z,9.00
2023-04-12T07:50:50.566Z,9.00
2023-04-12T07:53:18.887Z,9.00
2023-04-12T07:55:46.139Z,9.00
2023-04-12T07:58:13.112Z,9.10
2023-04-12T08:00:39.894Z,9.10
2023-04-12T08:03:06.833Z,9.10
2023-04-12T08:05:34.394Z,9.10
2023-04-12T08:08:01.125Z,9.30
2023-04-12T08:10:27.887Z,9.40
2023-04-12T08:12:54.719Z,9.60
2023-04-12T08:15:21.628Z,9.70
2023-04-12T08:17:48.469Z,9.90
2023-04-12T08:20:15.770Z,9.90
2023-04-12T08:22:43.353Z,10.10
2023-04-12T08:25:10.590Z,10.10
2023-04-12T08:27:39.321Z,10.10
2023-04-12T08:30:07.242Z,10.00
2023-04-12T08:32:35.371Z,10.00
2023-04-12T08:35:02.548Z,10.00
2023-04-12T08:37:29.520Z,9.90
2023-04-12T08:39:56.346Z,10.00
2023-04-12T08:42:23.618Z,9.90
2023-04-12T08:44:52.144Z,9.90
2023-04-12T08:47:19.801Z,9.90
2023-04-12T08:49:46.867Z,9.90
2023-04-12T08:52:13.772Z,10.00
2023-04-12T08:54:40.773Z,10.10
2023-04-12T08:57:09.445Z,10.10
2023-04-12T08:59:42.226Z,10.10
2023-04-12T09:02:10.189Z,10.20
2023-04-12T09:04:51.019Z,10.30
2023-04-12T09:07:18.190Z,10.40
2023-04-12T09:09:47.049Z,10.50
2023-04-12T09:12:15.216Z,10.60
2023-04-12T09:14:44.814Z,10.70
2023-04-12T09:17:26.799Z,10.80
2023-04-12T09:19:55.956Z,10.80
2023-04-12T09:22:35.872Z,10.80
2023-04-12T09:25:03.049Z,10.70
2023-04-12T09:27:30.092Z,10.80
2023-04-12T09:30:09.956Z,10.80
2023-04-12T09:32:37.720Z,10.80
2023-04-12T09:35:05.720Z,10.90
2023-04-12T09:37:32.682Z,10.90
2023-04-12T09:40:10.257Z,10.90
2023-04-12T09:42:53.255Z,10.80
2023-04-12T09:45:25.548Z,10.80
2023-04-12T09:47:53.939Z,10.80
2023-04-12T09:50:26.702Z,10.90
2023-04-12T09:52:55.227Z,10.90
2023-04-12T09:55:23.763Z,10.90
2023-04-12T09:57:52.322Z,10.90
2023-04-12T10:00:22.474Z,10.90
2023-04-12T10:02:52.069Z,11.00
2023-04-12T10:05:23.065Z,11.10
2023-04-12T10:07:50.747Z,11.20
2023-04-12T10:10:18.770Z,11.40
2023-04-12T10:12:47.365Z,11.40
2023-04-12T10:15:17.706Z,11.50
2023-04-12T10:17:51.752Z,11.50
2023-04-12T10:20:20.559Z,11.50
2023-04-12T10:22:50.529Z,11.60
2023-04-12T10:25:21.472Z,11.60
2023-04-12T10:27:48.803Z,11.50
2023-04-12T10:30:28.525Z,11.50
2023-04-12T10:33:10.174Z,11.60
2023-04-12T10:35:56.685Z,11.80
2023-04-12T10:38:32.917Z,12.00
2023-04-12T10:41:21.544Z,12.00
2023-04-12T10:43:48.960Z,12.10
2023-04-12T10:46:37.890Z,12.20
2023-04-12T10:49:10.240Z,12.50
2023-04-12T10:51:37.571Z,12.80
2023-04-12T10:54:16.843Z,13.20
2023-04-12T10:56:45.507Z,13.30
2023-04-12T10:59:51.540Z,13.20
2023-04-12T11:02:18.527Z,13.10
2023-04-12T11:05:09.710Z,13.10
2023-04-12T11:08:12.615Z,13.10
2023-04-12T11:10:39.541Z,13.10
2023-04-12T11:13:09.470Z,13.10
2023-04-12T11:15:39.743Z,12.80
2023-04-12T11:18:12.313Z,12.60
2023-04-12T11:20:39.465Z,12.30
2023-04-12T11:23:06.207Z,12.20
2023-04-12T11:25:33.333Z,12.20
2023-04-12T11:28:01.160Z,12.10
2023-04-12T11:30:29.446Z,12.10
2023-04-12T11:32:56.284Z,12.10
2023-04-12T11:35:27.355Z,12.20
2023-04-12T11:37:59.698Z,12.30
2023-04-12T11:40:27.124Z,12.30
2023-04-12T11:42:53.977Z,12.30
2023-04-12T11:45:21.636Z,12.20
2023-04-12T11:47:48.528Z,12.10
2023-04-12T11:50:29.639Z,12.00
2023-04-12T11:53:12.682Z,11.90
2023-04-12T11:55:39.517Z,11.60
2023-04-12T11:58:07.037Z,11.40
2023-04-12T12:00:34.803Z,11.30
2023-04-12T12:03:07.212Z,11.20
2023-04-12T12:05:37.720Z,11.10
2023-04-12T12:08:07.517Z,11.10
2023-04-12T12:10:46.343Z,11.20
2023-04-12T12:13:22.673Z,11.30
2023-04-12T12:15:52.144Z,11.50
2023-04-12T12:18:19.038Z,11.70
2023-04-12T12:20:50.358Z,11.70
2023-04-12T12:23:30.338Z,11.70
2023-04-12T12:26:14.220Z,11.60
2023-04-12T12:28:50.253Z,11.60
2023-04-12T12:31:23.672Z,11.60
2023-04-12T12:33:55.129Z,11.70
2023-04-12T12:36:29.516Z,11.90
2023-04-12T12:38:56.531Z,12.00
2023-04-12T12:41:24.934Z,12.20
2023-04-12T12:43:52.773Z,12.40
2023-04-12T12:46:20.520Z,12.50
2023-04-12T12:48:48.708Z,12.60
2023-04-12T12:51:22.422Z,12.60
2023-04-12T12:53:49.235Z,12.50
2023-04-12T12:56:16.103Z,12.50
2023-04-12T12:58:43.045Z,12.40
2023-04-12T13:01:10.040Z,12.30
2023-04-12T13:03:37.018Z,12.40
2023-04-12T13:06:04.118Z,12.50
2023-04-12T13:08:35.078Z,12.60
2023-04-12T13:11:01.875Z,12.70
2023-04-12T13:13:28.710Z,12.80
2023-04-12T13:15:56.016Z,12.90
2023-04-12T13:18:22.777Z,13.10
2023-04-12T13:20:49.774Z,13.30
2023-04-12T13:23:16.636Z,13.30
2023-04-12T13:25:43.443Z,13.30
2023-04-12T13:28:10.644Z,13.40
2023-04-12T13:30:37.425Z,13.50
2023-04-12T13:33:04.223Z,13.40
2023-04-12T13:35:31.081Z,13.40
2023-04-12T13:37:57.868Z,13.40
2023-04-12T13:40:24.672Z,13.50
2023-04-12T13:42:51.453Z,13.40
2023-04-12T13:45:18.242Z,13.50
2023-04-12T13:47:45.027Z,13.70
2023-04-12T13:50:11.835Z,14.00
2023-04-12T13:52:38.597Z,14.40
2023-04-12T13:55:08.162Z,14.90
2023-04-12T13:57:35.936Z,14.70
2023-04-12T14:00:02.841Z,14.60
2023-04-12T14:02:32.030Z,14.40
2023-04-12T14:05:00.131Z,14.30
2023-04-12T14:07:29.274Z,14.30
2023-04-12T14:09:57.638Z,14.10
2023-04-12T14:12:24.485Z,14.20
2023-04-12T14:14:51.290Z,14.60
2023-04-12T14:17:18.128Z,14.70
2023-04-12T14:19:44.942Z,14.70
2023-04-12T14:22:11.733Z,14.50
2023-04-12T14:24:40.009Z,14.30
2023-04-12T14:27:07.622Z,14.20
2023-04-12T14:29:34.470Z,14.20
2023-04-12T14:32:01.255Z,14.30
2023-04-12T14:34:28.169Z,14.60
2023-04-12T14:36:56.195Z,14.80
2023-04-12T14:39:24.277Z,15.10
2023-04-12T14:41:51.278Z,15.10
2023-04-12T14:44:20.096Z,14.90
2023-04-12T14:46:47.722Z,14.70
2023-04-12T14:49:14.610Z,14.60
2023-04-12T14:51:42.496Z,14.30
2023-04-12T14:54:09.322Z,14.00
2023-04-12T14:56:44.409Z,13.90
2023-04-12T14:59:14.420Z,13.50
2023-04-12T15:01:41.813Z,12.90
2023-04-12T15:04:08.887Z,12.40
2023-04-12T15:06:42.072Z,12.00
2023-04-12T15:09:09.843Z,11.60
2023-04-12T15:11:38.071Z,11.40
2023-04-12T15:14:06.907Z,11.10
2023-04-12T15:16:34.959Z,10.90
2023-04-12T15:19:07.799Z,10.80
2023-04-12T15:21:38.117Z,10.70
2023-04-12T15:24:05.145Z,10.50
2023-04-12T15:26:33.657Z,10.50
2023-04-12T15:29:00.681Z,10.40
2023-04-12T15:31:28.358Z,10.30
2023-04-12T15:33:55.622Z,10.30
2023-04-12T15:36:22.738Z,10.30
2023-04-12T15:38:49.667Z,10.20
2023-04-12T15:41:16.509Z,10.40
2023-04-12T15:43:49.093Z,10.50
2023-04-12T15:46:16.172Z,10.60
2023-04-12T15:48:43.526Z,10.80
2023-04-12T15:51:10.435Z,10.80
2023-04-12T15:53:37.429Z,10.80
2023-04-12T15:56:04.543Z,10.70
2023-04-12T15:58:31.390Z,10.50
2023-04-12T16:00:58.132Z,10.40
2023-04-12T16:03:25.977Z,10.30
2023-04-12T16:05:53.518Z,10.10
2023-04-12T16:08:20.837Z,10.00
2023-04-12T16:10:48.583Z,10.00
2023-04-12T16:13:15.640Z,9.80
2023-04-12T16:15:42.593Z,9.70
2023-04-12T16:18:09.644Z,9.70
2023-04-12T16:20:37.389Z,9.70
2023-04-12T16:23:05.129Z,9.80
2023-04-12T16:25:32.080Z,9.80
2023-04-12T16:28:02.285Z,9.80
2023-04-12T16:30:31.137Z,9.80
2023-04-12T16:32:58.132Z,9.90
2023-04-12T16:35:25.294Z,9.90
2023-04-12T16:37:52.254Z,10.00
2023-04-12T16:40:19.197Z,10.00
2023-04-12T16:42:46.038Z,9.90
2023-04-12T16:45:16.220Z,9.80
2023-04-12T16:47:45.940Z,9.70
2023-04-12T16:50:13.428Z,9.60
2023-04-12T16:52:41.034Z,9.60
2023-04-12T16:55:10.898Z,9.60
2023-04-12T16:57:39.812Z,9.50
2023-04-12T17:00:22.061Z,9.40
2023-04-12T17:02:50.733Z,9.30
2023-04-12T17:05:18.838Z,9.30
2023-04-12T17:07:51.201Z,9.20
2023-04-12T17:10:19.315Z,9.20
2023-04-12T17:12:47.624Z,9.10
2023-04-12T17:15:16.319Z,9.20
2023-04-12T17:17:48.127Z,9.20
2023-04-12T17:20:20.096Z,9.10
2023-04-12T17:22:47.433Z,9.10
2023-04-12T17:25:14.338Z,9.10
2023-04-12T17:27:41.700Z,9.20
2023-04-12T17:30:10.682Z,9.20
2023-04-12T17:32:38.316Z,9.10
2023-04-12T17:35:06.781Z,9.10
2023-04-12T17:37:34.828Z,9.00
2023-04-12T17:40:02.017Z,9.00
2023-04-12T17:42:29.075Z,8.90
2023-04-12T17:44:55.878Z,8.90
2023-04-12T17:47:23.028Z,8.80
2023-04-12T17:49:50.084Z,8.70
2023-04-12T17:52:17.304Z,8.70
2023-04-12T17:54:44.129Z,8.60
2023-04-12T17:57:11.326Z,8.50
2023-04-12T17:59:38.156Z,8.50
2023-04-12T18:02:05.080Z,8.50
2023-04-12T18:04:32.050Z,8.40
2023-04-12T18:06:59.036Z,8.40
2023-04-12T18:09:27.011Z,8.30
2023-04-12T18:11:53.832Z,8.20
2023-04-12T18:14:20.729Z,8.20
2023-04-12T18:16:47.861Z,8.10
2023-04-12T18:19:18.768Z,8.00
2023-04-12T18:21:49.221Z,7.90
2023-04-12T18:24:16.876Z,7.90
2023-04-12T18:26:44.512Z,7.70
2023-04-12T18:29:15.948Z,7.70
2023-04-12T18:31:42.917Z,7.60
2023-04-12T18:34:09.886Z,7.50
2023-04-12T18:36:37.137Z,7.50
2023-04-12T18:39:04.634Z,7.40
2023-04-12T18:41:31.571Z,7.30
2023-04-12T18:43:58.849Z,7.30
2023-04-12T18:46:31.790Z,7.20
2023-04-12T18:48:58.862Z,7.20
2023-04-12T18:51:26.231Z,7.10
2023-04-12T18:53:53.029Z,7.10
2023-04-12T18:56:24.267Z,7.00
2023-04-12T18:58:55.597Z,7.00
2023-04-12T19:01:24.911Z,6.90
2023-04-12T19:03:52.349Z,6.90
2023-04-12T19:06:19.466Z,6.90
2023-04-12T19:08:46.637Z,6.90
2023-04-12T19:11:13.543Z,6.90
2023-04-12T19:13:40.489Z,6.90
2023-04-12T19:16:07.786Z,7.00
2023-04-12T19:18:34.832Z,7.00
2023-04-12T19:21:02.490Z,7.00
2023-04-12T19:23:31.225Z,7.00
2023-04-12T19:26:00.046Z,7.10
2023-04-12T19:28:27.652Z,7.00
2023-04-12T19:30:56.908Z,7.00
2023-04-12T19:33:24.657Z,7.10
2023-04-12T19:35:55.235Z,7.10
2023-04-12T19:38:22.168Z,7.10
2023-04-12T19:40:50.788Z,7.10
2023-04-12T19:43:20.849Z,7.10
2023-04-12T19:45:47.948Z,7.00
2023-04-12T19:48:14.775Z,7.00
2023-04-12T19:50:42.756Z,7.10
2023-04-12T19:53:10.967Z,7.10
2023-04-12T19:55:38.801Z,7.10
2023-04-12T19:58:06.144Z,7.10
2023-04-12T20:00:32.938Z,7.10
2023-04-12T20:02:59.746Z,7.10
2023-04-12T20:05:27.464Z,7.10
2023-04-12T20:07:55.775Z,7.10
2023-04-12T20:10:22.659Z,7.10
2023-04-12T20:12:49.611Z,7.10
2023-04-12T20:15:17.701Z,7.20
2023-04-12T20:17:46.298Z,7.20
2023-04-12T20:20:17.160Z,7.20
2023-04-12T20:22:46.081Z,7.20
2023-04-12T20:25:14.289Z,7.20
2023-04-12T20:27:41.169Z,7.20
2023-04-12T20:30:10.916Z,7.30
2023-04-12T20:32:37.818Z,7.30
2023-04-12T20:35:04.942Z,7.30
2023-04-12T20:37:32.567Z,7.40
2023-04-12T20:39:59.439Z,7.40
2023-04-12T20:42:26.396Z,7.40
2023-04-12T20:44:53.297Z,7.50
2023-04-12T20:47:20.970Z,7.50
2023-04-12T20:49:47.962Z,7.50
2023-04-12T20:52:19.247Z,7.50
2023-04-12T20:54:48.042Z,7.50
2023-04-12T20:57:19.430Z,7.50
2023-04-12T20:59:46.622Z,7.50
2023-04-12T21:02:15.232Z,7.40
2023-04-12T21:04:42.169Z,7.40
2023-04-12T21:07:11.108Z,7.30
2023-04-12T21:09:38.704Z,7.30
2023-04-12T21:12:08.406Z,7.20
2023-04-12T21:14:37.453Z,7.20
2023-04-12T21:17:06.956Z,7.20
2023-04-12T21:19:40.884Z,7.10
2023-04-12T21:22:08.592Z,7.10
2023-04-12T21:24:38.127Z,7.10
2023-04-12T21:27:08.396Z,7.00
2023-04-12T21:29:40.803Z,7.00
2023-04-12T21:32:08.572Z,6.90
2023-04-12T21:34:35.755Z,6.80
2023-04-12T21:37:04.096Z,6.80
2023-04-12T21:39:32.244Z,6.70
2023-04-12T21:41:59.072Z,6.60
2023-04-12T21:44:26.497Z,6.60
2023-04-12T21:46:53.345Z,6.50
2023-04-12T21:49:20.111Z,6.50
2023-04-12T21:51:48.960Z,6.50
2023-04-12T21:54:16.231Z,6.40
2023-04-12T21:56:43.054Z,6.40
2023-04-12T21:59:09.859Z,6.40
2023-04-12T22:01:37.185Z,6.30
2023-04-12T22:04:04.314Z,6.30
2023-04-12T22:06:31.295Z,6.30
2023-04-12T22:09:02.364Z,6.30
2023-04-12T22:11:30.455Z,6.40
2023-04-12T22:13:57.877Z,6.40
2023-04-12T22:16:24.850Z,6.40
2023-04-12T22:18:52.787Z,6.40
2023-04-12T22:21:19.770Z,6.50
2023-04-12T22:23:46.696Z,6.50
2023-04-12T22:26:13.641Z,6.50
2023-04-12T22:28:42.482Z,6.60
2023-04-12T22:31:14.338Z,6.60
2023-04-12T22:33:41.930Z,6.50
2023-04-12T22:36:09.679Z,6.50
2023-04-12T22:38:44.566Z,6.40
2023-04-12T22:41:15.913Z,6.50
2023-04-12T22:43:42.836Z,6.40
2023-04-12T22:46:16.144Z,6.40
2023-04-12T22:48:47.885Z,6.40
2023-04-12T22:51:15.317Z,6.40
2023-04-12T22:53:43.202Z,6.30
2023-04-12T22:56:11.041Z,6.30
2023-04-12T22:58:39.938Z,6.30
2023-04-12T23:01:07.161Z,6.30
2023-04-12T23:03:34.110Z,6.30
2023-04-12T23:06:00.854Z,6.20
2023-04-12T23:08:28.980Z,6.20
2023-04-12T23:11:02.041Z,6.10
2023-04-12T23:13:29.867Z,6.10
2023-04-12T23:15:57.567Z,6.10
2023-04-12T23:18:25.590Z,6.10
2023-04-12T23:20:53.845Z,6.10
2023-04-12T23:23:22.457Z,6.00
2023-04-12T23:25:49.275Z,6.00
2023-04-12T23:28:19.353Z,6.10
2023-04-12T23:30:49.043Z,6.10
2023-04-12T23:33:20.759Z,6.10
2023-04-12T23:35:52.023Z,6.10
2023-04-12T23:38:31.810Z,6.10
2023-04-12T23:41:03.801Z,6.10
2023-04-12T23:43:32.512Z,6.20
2023-04-12T23:45:59.823Z,6.20
2023-04-12T23:48:27.106Z,6.20
2023-04-12T23:50:54.352Z,6.20
2023-04-12T23:53:21.740Z,6.20
2023-04-12T23:55:50.325Z,6.20
2023-04-12T23:58:18.113Z,6.20
